sensor_id;sensor_type;location;lat;lon;timestamp;pressure;altitude;pressure_sealevel;temperature;humidity
59588;BME280;45412;54.472;18.464;2023-03-03T00:03:02;100230.33;;;-2.15;100.00
59588;BME280;45412;54.472;18.464;2023-03-03T00:05:52;100229.13;;;-2.14;100.00
59588;BME280;45412;54.472;18.464;2023-03-03T00:08:40;100219.37;;;-2.14;100.00
59588;BME280;45412;54.472;18.464;2023-03-03T00:11:28;100215.71;;;-2.13;100.00
59588;BME280;45412;54.472;18.464;2023-03-03T00:14:32;100197.34;;;-2.15;100.00
59588;BME280;45412;54.472;18.464;2023-03-03T00:17:26;100196.91;;;-2.13;100.00
59588;BME280;45412;54.472;18.464;2023-03-03T00:20:38;100188.06;;;-2.13;100.00
59588;BME280;45412;54.472;18.464;2023-03-03T00:23:34;100188.08;;;-2.14;100.00
59588;BME280;45412;54.472;18.464;2023-03-03T00:26:30;100182.17;;;-2.14;100.00
59588;BME280;45412;54.472;18.464;2023-03-03T00:29:36;100175.39;;;-2.15;100.00
59588;BME280;45412;54.472;18.464;2023-03-03T00:32:53;100174.73;;;-2.16;100.00
59588;BME280;45412;54.472;18.464;2023-03-03T00:35:42;100186.08;;;-2.17;100.00
59588;BME280;45412;54.472;18.464;2023-03-03T00:38:34;100180.73;;;-2.19;100.00
59588;BME280;45412;54.472;18.464;2023-03-03T00:41:26;100175.23;;;-2.22;100.00
59588;BME280;45412;54.472;18.464;2023-03-03T00:47:35;100175.61;;;-2.23;100.00
59588;BME280;45412;54.472;18.464;2023-03-03T00:50:32;100183.59;;;-2.23;100.00
59588;BME280;45412;54.472;18.464;2023-03-03T00:53:23;100180.25;;;-2.21;100.00
59588;BME280;45412;54.472;18.464;2023-03-03T00:56:12;100175.79;;;-2.23;100.00
59588;BME280;45412;54.472;18.464;2023-03-03T00:59:00;100178.11;;;-2.19;100.00
59588;BME280;45412;54.472;18.464;2023-03-03T01:01:48;100175.11;;;-2.17;100.00
59588;BME280;45412;54.472;18.464;2023-03-03T01:04:37;100166.64;;;-2.18;100.00
59588;BME280;45412;54.472;18.464;2023-03-03T01:07:25;100159.69;;;-2.12;100.00
59588;BME280;45412;54.472;18.464;2023-03-03T01:10:15;100160.98;;;-2.07;100.00
59588;BME280;45412;54.472;18.464;2023-03-03T01:13:03;100166.47;;;-2.04;100.00
59588;BME280;45412;54.472;18.464;2023-03-03T01:15:52;100169.50;;;-2.00;100.00
59588;BME280;45412;54.472;18.464;2023-03-03T01:18:41;100168.20;;;-1.97;100.00
59588;BME280;45412;54.472;18.464;2023-03-03T01:21:29;100159.42;;;-1.94;100.00
59588;BME280;45412;54.472;18.464;2023-03-03T01:24:17;100152.73;;;-1.90;100.00
59588;BME280;45412;54.472;18.464;2023-03-03T01:27:04;100153.54;;;-1.87;100.00
59588;BME280;45412;54.472;18.464;2023-03-03T01:29:53;100152.06;;;-1.84;100.00
59588;BME280;45412;54.472;18.464;2023-03-03T01:32:41;100147.63;;;-1.80;100.00
59588;BME280;45412;54.472;18.464;2023-03-03T01:35:29;100149.56;;;-1.75;100.00
59588;BME280;45412;54.472;18.464;2023-03-03T01:38:17;100145.27;;;-1.70;100.00
59588;BME280;45412;54.472;18.464;2023-03-03T01:41:05;100151.05;;;-1.65;100.00
59588;BME280;45412;54.472;18.464;2023-03-03T01:43:53;100143.20;;;-1.64;100.00
59588;BME280;45412;54.472;18.464;2023-03-03T01:47:27;100151.84;;;-1.55;100.00
59588;BME280;45412;54.472;18.464;2023-03-03T01:53:48;100145.32;;;-1.45;100.00
59588;BME280;45412;54.472;18.464;2023-03-03T01:56:38;100142.08;;;-1.41;100.00
59588;BME280;45412;54.472;18.464;2023-03-03T01:59:40;100138.72;;;-1.40;100.00
59588;BME280;45412;54.472;18.464;2023-03-03T02:02:30;100134.61;;;-1.35;100.00
59588;BME280;45412;54.472;18.464;2023-03-03T02:05:18;100136.75;;;-1.31;100.00
59588;BME280;45412;54.472;18.464;2023-03-03T02:08:11;100134.57;;;-1.28;100.00
59588;BME280;45412;54.472;18.464;2023-03-03T02:11:04;100130.30;;;-1.24;100.00
59588;BME280;45412;54.472;18.464;2023-03-03T02:13:53;100126.38;;;-1.21;100.00
59588;BME280;45412;54.472;18.464;2023-03-03T02:16:43;100130.48;;;-1.18;100.00
59588;BME280;45412;54.472;18.464;2023-03-03T02:19:50;100120.48;;;-1.16;100.00
59588;BME280;45412;54.472;18.464;2023-03-03T02:22:50;100115.70;;;-1.13;100.00
59588;BME280;45412;54.472;18.464;2023-03-03T02:28:47;100114.60;;;-1.05;100.00
59588;BME280;45412;54.472;18.464;2023-03-03T02:31:36;100115.05;;;-1.02;100.00
59588;BME280;45412;54.472;18.464;2023-03-03T02:34:25;100113.04;;;-0.99;100.00
59588;BME280;45412;54.472;18.464;2023-03-03T02:37:13;100118.69;;;-0.96;100.00
59588;BME280;45412;54.472;18.464;2023-03-03T02:40:02;100125.25;;;-0.94;100.00
59588;BME280;45412;54.472;18.464;2023-03-03T02:42:51;100118.05;;;-0.92;100.00
59588;BME280;45412;54.472;18.464;2023-03-03T02:45:44;100124.25;;;-0.89;100.00
59588;BME280;45412;54.472;18.464;2023-03-03T02:48:32;100117.36;;;-0.86;100.00
59588;BME280;45412;54.472;18.464;2023-03-03T02:51:20;100116.70;;;-0.81;100.00
59588;BME280;45412;54.472;18.464;2023-03-03T02:54:10;100112.58;;;-0.78;100.00
59588;BME280;45412;54.472;18.464;2023-03-03T02:56:59;100101.65;;;-0.79;100.00
59588;BME280;45412;54.472;18.464;2023-03-03T02:59:47;100106.15;;;-0.73;100.00
59588;BME280;45412;54.472;18.464;2023-03-03T03:02:36;100106.40;;;-0.69;100.00
59588;BME280;45412;54.472;18.464;2023-03-03T03:05:25;100109.75;;;-0.64;100.00
59588;BME280;45412;54.472;18.464;2023-03-03T03:08:14;100106.11;;;-0.59;100.00
59588;BME280;45412;54.472;18.464;2023-03-03T03:11:03;100106.37;;;-0.57;100.00
59588;BME280;45412;54.472;18.464;2023-03-03T03:13:52;100103.48;;;-0.54;100.00
59588;BME280;45412;54.472;18.464;2023-03-03T03:16:41;100099.55;;;-0.51;100.00
59588;BME280;45412;54.472;18.464;2023-03-03T03:19:29;100099.11;;;-0.47;100.00
59588;BME280;45412;54.472;18.464;2023-03-03T03:22:20;100100.92;;;-0.44;100.00
59588;BME280;45412;54.472;18.464;2023-03-03T03:25:09;100100.29;;;-0.41;100.00
59588;BME280;45412;54.472;18.464;2023-03-03T03:27:57;100093.89;;;-0.37;100.00
59588;BME280;45412;54.472;18.464;2023-03-03T03:30:45;100093.77;;;-0.33;100.00
59588;BME280;45412;54.472;18.464;2023-03-03T03:33:33;100083.54;;;-0.29;100.00
59588;BME280;45412;54.472;18.464;2023-03-03T03:36:21;100088.02;;;-0.27;100.00
59588;BME280;45412;54.472;18.464;2023-03-03T03:39:10;100084.07;;;-0.24;100.00
59588;BME280;45412;54.472;18.464;2023-03-03T03:42:00;100086.88;;;-0.20;100.00
59588;BME280;45412;54.472;18.464;2023-03-03T03:44:48;100092.56;;;-0.17;100.00
59588;BME280;45412;54.472;18.464;2023-03-03T03:47:38;100086.67;;;-0.14;100.00
59588;BME280;45412;54.472;18.464;2023-03-03T03:50:26;100091.14;;;-0.11;100.00
59588;BME280;45412;54.472;18.464;2023-03-03T03:53:15;100097.20;;;-0.10;100.00
59588;BME280;45412;54.472;18.464;2023-03-03T03:56:05;100088.73;;;-0.07;100.00
59588;BME280;45412;54.472;18.464;2023-03-03T03:58:53;100079.15;;;-0.02;100.00
59588;BME280;45412;54.472;18.464;2023-03-03T04:01:41;100072.11;;;-0.00;100.00
59588;BME280;45412;54.472;18.464;2023-03-03T04:04:29;100069.45;;;0.01;100.00
59588;BME280;45412;54.472;18.464;2023-03-03T04:07:17;100068.46;;;0.05;100.00
59588;BME280;45412;54.472;18.464;2023-03-03T04:10:06;100073.91;;;0.09;100.00
59588;BME280;45412;54.472;18.464;2023-03-03T04:12:55;100077.14;;;0.11;100.00
59588;BME280;45412;54.472;18.464;2023-03-03T04:15:43;100074.66;;;0.12;100.00
59588;BME280;45412;54.472;18.464;2023-03-03T04:18:32;100075.47;;;0.14;100.00
59588;BME280;45412;54.472;18.464;2023-03-03T04:21:20;100078.91;;;0.15;100.00
59588;BME280;45412;54.472;18.464;2023-03-03T04:24:08;100077.41;;;0.19;100.00
59588;BME280;45412;54.472;18.464;2023-03-03T04:26:57;100065.13;;;0.20;100.00
59588;BME280;45412;54.472;18.464;2023-03-03T04:29:45;100054.92;;;0.22;100.00
59588;BME280;45412;54.472;18.464;2023-03-03T04:32:33;100053.30;;;0.25;100.00
59588;BME280;45412;54.472;18.464;2023-03-03T04:35:22;100051.45;;;0.27;100.00
59588;BME280;45412;54.472;18.464;2023-03-03T04:38:10;100036.64;;;0.26;100.00
59588;BME280;45412;54.472;18.464;2023-03-03T04:40:59;100023.86;;;0.28;100.00
59588;BME280;45412;54.472;18.464;2023-03-03T04:43:51;100031.63;;;0.30;100.00
59588;BME280;45412;54.472;18.464;2023-03-03T04:46:39;100034.00;;;0.32;100.00
59588;BME280;45412;54.472;18.464;2023-03-03T04:49:27;100036.65;;;0.36;100.00
59588;BME280;45412;54.472;18.464;2023-03-03T04:52:15;100031.63;;;0.40;100.00
59588;BME280;45412;54.472;18.464;2023-03-03T04:55:04;100017.36;;;0.43;100.00
59588;BME280;45412;54.472;18.464;2023-03-03T04:57:52;100013.46;;;0.45;100.00
59588;BME280;45412;54.472;18.464;2023-03-03T05:00:41;100013.61;;;0.46;100.00
59588;BME280;45412;54.472;18.464;2023-03-03T05:03:28;100016.80;;;0.49;100.00
59588;BME280;45412;54.472;18.464;2023-03-03T05:06:16;100026.71;;;0.50;100.00
59588;BME280;45412;54.472;18.464;2023-03-03T05:09:05;100031.34;;;0.53;100.00
59588;BME280;45412;54.472;18.464;2023-03-03T05:11:53;100032.52;;;0.54;100.00
59588;BME280;45412;54.472;18.464;2023-03-03T05:14:41;100027.88;;;0.56;100.00
59588;BME280;45412;54.472;18.464;2023-03-03T05:17:30;100030.98;;;0.58;100.00
59588;BME280;45412;54.472;18.464;2023-03-03T05:20:18;100034.04;;;0.60;100.00
59588;BME280;45412;54.472;18.464;2023-03-03T05:23:06;100037.92;;;0.59;100.00
59588;BME280;45412;54.472;18.464;2023-03-03T05:25:54;100044.47;;;0.65;100.00
59588;BME280;45412;54.472;18.464;2023-03-03T05:28:42;100033.55;;;0.68;100.00
59588;BME280;45412;54.472;18.464;2023-03-03T05:31:30;100031.95;;;0.69;100.00
59588;BME280;45412;54.472;18.464;2023-03-03T05:34:18;100038.08;;;0.68;100.00
59588;BME280;45412;54.472;18.464;2023-03-03T05:37:06;100041.09;;;0.67;100.00
59588;BME280;45412;54.472;18.464;2023-03-03T05:39:53;100043.29;;;0.69;100.00
59588;BME280;45412;54.472;18.464;2023-03-03T05:42:41;100047.94;;;0.71;100.00
59588;BME280;45412;54.472;18.464;2023-03-03T05:45:30;100050.52;;;0.73;100.00
59588;BME280;45412;54.472;18.464;2023-03-03T05:48:18;100044.05;;;0.77;100.00
59588;BME280;45412;54.472;18.464;2023-03-03T05:51:05;100045.48;;;0.81;100.00
59588;BME280;45412;54.472;18.464;2023-03-03T05:53:53;100048.20;;;0.83;100.00
59588;BME280;45412;54.472;18.464;2023-03-03T05:56:43;100047.76;;;0.86;100.00
59588;BME280;45412;54.472;18.464;2023-03-03T05:59:31;100049.73;;;0.89;100.00
59588;BME280;45412;54.472;18.464;2023-03-03T06:02:19;100052.02;;;0.93;99.99
59588;BME280;45412;54.472;18.464;2023-03-03T06:05:08;100060.13;;;0.96;99.85
59588;BME280;45412;54.472;18.464;2023-03-03T06:07:56;100058.96;;;0.99;99.69
59588;BME280;45412;54.472;18.464;2023-03-03T06:10:44;100059.51;;;1.03;99.58
59588;BME280;45412;54.472;18.464;2023-03-03T06:13:32;100059.32;;;1.08;99.26
59588;BME280;45412;54.472;18.464;2023-03-03T06:16:20;100059.04;;;1.15;98.75
59588;BME280;45412;54.472;18.464;2023-03-03T06:19:08;100061.31;;;1.24;98.52
59588;BME280;45412;54.472;18.464;2023-03-03T06:21:56;100064.09;;;1.33;98.18
59588;BME280;45412;54.472;18.464;2023-03-03T06:24:47;100062.60;;;1.41;97.65
59588;BME280;45412;54.472;18.464;2023-03-03T06:27:35;100064.00;;;1.49;97.04
59588;BME280;45412;54.472;18.464;2023-03-03T06:30:23;100067.05;;;1.56;96.75
59588;BME280;45412;54.472;18.464;2023-03-03T06:33:13;100068.42;;;1.65;96.05
59588;BME280;45412;54.472;18.464;2023-03-03T06:36:01;100067.16;;;1.75;95.54
59588;BME280;45412;54.472;18.464;2023-03-03T06:38:52;100059.36;;;1.90;94.99
59588;BME280;45412;54.472;18.464;2023-03-03T06:41:40;100057.59;;;2.07;94.10
59588;BME280;45412;54.472;18.464;2023-03-03T06:44:28;100057.38;;;2.20;92.86
59588;BME280;45412;54.472;18.464;2023-03-03T06:47:16;100057.07;;;2.28;91.37
59588;BME280;45412;54.472;18.464;2023-03-03T06:50:05;100057.83;;;2.30;91.03
59588;BME280;45412;54.472;18.464;2023-03-03T06:53:09;100060.98;;;2.50;90.70
59588;BME280;45412;54.472;18.464;2023-03-03T06:55:58;100064.94;;;2.76;89.69
59588;BME280;45412;54.472;18.464;2023-03-03T06:58:48;100058.81;;;3.02;88.97
59588;BME280;45412;54.472;18.464;2023-03-03T07:01:37;100066.42;;;3.16;87.28
59588;BME280;45412;54.472;18.464;2023-03-03T07:04:31;100066.38;;;3.39;86.80
59588;BME280;45412;54.472;18.464;2023-03-03T07:07:23;100072.42;;;3.67;85.44
59588;BME280;45412;54.472;18.464;2023-03-03T07:13:23;100067.67;;;4.13;81.66
59588;BME280;45412;54.472;18.464;2023-03-03T07:16:13;100062.98;;;4.73;79.14
59588;BME280;45412;54.472;18.464;2023-03-03T07:19:02;100072.05;;;5.17;78.28
59588;BME280;45412;54.472;18.464;2023-03-03T07:21:52;100067.30;;;5.42;75.51
59588;BME280;45412;54.472;18.464;2023-03-03T07:24:43;100062.61;;;5.57;73.90
59588;BME280;45412;54.472;18.464;2023-03-03T07:27:32;100059.44;;;5.97;73.28
59588;BME280;45412;54.472;18.464;2023-03-03T07:30:26;100058.42;;;6.35;71.15
59588;BME280;45412;54.472;18.464;2023-03-03T07:33:40;100056.82;;;6.91;68.59
59588;BME280;45412;54.472;18.464;2023-03-03T07:36:35;100064.84;;;7.62;67.63
59588;BME280;45412;54.472;18.464;2023-03-03T07:39:35;100062.84;;;7.90;63.72
59588;BME280;45412;54.472;18.464;2023-03-03T07:45:45;100060.08;;;8.31;61.35
59588;BME280;45412;54.472;18.464;2023-03-03T07:48:38;100067.45;;;8.39;61.22
59588;BME280;45412;54.472;18.464;2023-03-03T07:51:37;100063.84;;;8.61;60.00
59588;BME280;45412;54.472;18.464;2023-03-03T07:54:37;100061.03;;;8.74;59.43
59588;BME280;45412;54.472;18.464;2023-03-03T07:57:35;100059.31;;;8.81;59.33
59588;BME280;45412;54.472;18.464;2023-03-03T08:03:19;100053.38;;;8.62;58.95
59588;BME280;45412;54.472;18.464;2023-03-03T08:06:47;100051.58;;;9.20;57.54
59588;BME280;45412;54.472;18.464;2023-03-03T08:12:42;100043.69;;;10.29;53.84
59588;BME280;45412;54.472;18.464;2023-03-03T08:15:36;100040.38;;;10.61;53.27
59588;BME280;45412;54.472;18.464;2023-03-03T08:18:35;100040.50;;;11.00;51.12
59588;BME280;45412;54.472;18.464;2023-03-03T08:21:25;100035.82;;;11.32;50.43
59588;BME280;45412;54.472;18.464;2023-03-03T08:24:13;100033.30;;;11.65;49.84
59588;BME280;45412;54.472;18.464;2023-03-03T08:27:01;100038.27;;;11.65;48.19
59588;BME280;45412;54.472;18.464;2023-03-03T08:29:49;100032.02;;;11.59;48.22
59588;BME280;45412;54.472;18.464;2023-03-03T08:32:37;100034.65;;;11.59;48.26
59588;BME280;45412;54.472;18.464;2023-03-03T08:35:25;100033.20;;;11.64;48.36
59588;BME280;45412;54.472;18.464;2023-03-03T08:38:17;100031.45;;;11.57;47.90
59588;BME280;45412;54.472;18.464;2023-03-03T08:41:06;100032.99;;;11.56;47.69
59588;BME280;45412;54.472;18.464;2023-03-03T08:43:54;100035.54;;;11.62;48.50
59588;BME280;45412;54.472;18.464;2023-03-03T08:46:42;100035.85;;;11.77;47.47
59588;BME280;45412;54.472;18.464;2023-03-03T08:49:30;100033.12;;;11.57;47.04
59588;BME280;45412;54.472;18.464;2023-03-03T08:52:18;100034.02;;;11.21;47.62
59588;BME280;45412;54.472;18.464;2023-03-03T08:55:07;100035.08;;;10.97;48.49
59588;BME280;45412;54.472;18.464;2023-03-03T08:57:55;100040.64;;;10.81;48.59
59588;BME280;45412;54.472;18.464;2023-03-03T09:00:43;100041.48;;;10.56;49.08
59588;BME280;45412;54.472;18.464;2023-03-03T09:03:35;100043.21;;;10.56;49.98
59588;BME280;45412;54.472;18.464;2023-03-03T09:06:23;100041.71;;;11.16;49.17
59588;BME280;45412;54.472;18.464;2023-03-03T09:09:11;100035.52;;;12.03;47.84
59588;BME280;45412;54.472;18.464;2023-03-03T09:12:40;100030.70;;;12.47;45.70
59588;BME280;45412;54.472;18.464;2023-03-03T09:15:27;100028.77;;;12.20;45.55
59588;BME280;45412;54.472;18.464;2023-03-03T09:18:45;100025.61;;;11.94;45.23
59588;BME280;45412;54.472;18.464;2023-03-03T09:21:33;100024.27;;;11.67;45.61
59588;BME280;45412;54.472;18.464;2023-03-03T09:24:28;100025.53;;;11.47;46.68
59588;BME280;45412;54.472;18.464;2023-03-03T09:27:34;100021.72;;;11.29;47.40
59588;BME280;45412;54.472;18.464;2023-03-03T09:30:34;100024.60;;;11.50;46.85
59588;BME280;45412;54.472;18.464;2023-03-03T09:33:39;100020.47;;;12.50;44.76
59588;BME280;45412;54.472;18.464;2023-03-03T09:36:35;100013.23;;;13.65;42.01
59588;BME280;45412;54.472;18.464;2023-03-03T09:39:28;100001.77;;;15.06;40.63
59588;BME280;45412;54.472;18.464;2023-03-03T09:42:52;100003.48;;;16.17;37.30
59588;BME280;45412;54.472;18.464;2023-03-03T09:56:08;99985.77;;;17.57;33.55
59588;BME280;45412;54.472;18.464;2023-03-03T09:59:25;99983.67;;;17.85;32.84
59588;BME280;45412;54.472;18.464;2023-03-03T10:02:50;99982.43;;;17.47;33.16
59588;BME280;45412;54.472;18.464;2023-03-03T10:05:52;99973.57;;;18.54;32.00
59588;BME280;45412;54.472;18.464;2023-03-03T10:18:23;99968.89;;;21.17;27.80
59588;BME280;45412;54.472;18.464;2023-03-03T10:27:45;99964.70;;;21.19;26.69
59588;BME280;45412;54.472;18.464;2023-03-03T10:44:30;99971.21;;;18.83;29.61
59588;BME280;45412;54.472;18.464;2023-03-03T10:51:18;99966.45;;;19.39;29.27
59588;BME280;45412;54.472;18.464;2023-03-03T11:08:14;99956.41;;;21.07;27.23
59588;BME280;45412;54.472;18.464;2023-03-03T11:11:32;99948.88;;;21.48;26.53
59588;BME280;45412;54.472;18.464;2023-03-03T11:18:06;99941.52;;;21.20;26.15
59588;BME280;45412;54.472;18.464;2023-03-03T11:21:34;99940.11;;;20.45;27.29
59588;BME280;45412;54.472;18.464;2023-03-03T11:37:47;99923.35;;;18.26;30.83
59588;BME280;45412;54.472;18.464;2023-03-03T11:41:02;99911.80;;;17.98;31.16
59588;BME280;45412;54.472;18.464;2023-03-03T11:51:06;99901.92;;;16.98;32.73
59588;BME280;45412;54.472;18.464;2023-03-03T11:54:02;99892.98;;;17.18;32.93
59588;BME280;45412;54.472;18.464;2023-03-03T11:57:07;99878.20;;;17.39;32.68
59588;BME280;45412;54.472;18.464;2023-03-03T12:10:33;99863.27;;;17.36;31.40
59588;BME280;45412;54.472;18.464;2023-03-03T12:13:55;99864.92;;;16.77;31.89
59588;BME280;45412;54.472;18.464;2023-03-03T12:30:12;99844.91;;;14.84;33.65
59588;BME280;45412;54.472;18.464;2023-03-03T12:34:02;99844.34;;;14.65;33.44
59588;BME280;45412;54.472;18.464;2023-03-03T12:40:16;99827.38;;;13.89;34.67
59588;BME280;45412;54.472;18.464;2023-03-03T12:43:16;99834.55;;;13.58;35.73
59588;BME280;45412;54.472;18.464;2023-03-03T12:49:19;99836.60;;;12.59;37.21
59588;BME280;45412;54.472;18.464;2023-03-03T12:52:55;99836.75;;;11.96;37.94
59588;BME280;45412;54.472;18.464;2023-03-03T12:59:43;99824.65;;;10.45;40.14
59588;BME280;45412;54.472;18.464;2023-03-03T13:06:21;99826.30;;;9.38;42.37
59588;BME280;45412;54.472;18.464;2023-03-03T13:12:35;99821.38;;;8.93;43.72
59588;BME280;45412;54.472;18.464;2023-03-03T13:15:59;99812.82;;;8.70;43.65
59588;BME280;45412;54.472;18.464;2023-03-03T13:19:13;99815.15;;;8.42;44.72
59588;BME280;45412;54.472;18.464;2023-03-03T13:22:17;99808.42;;;8.35;44.78
59588;BME280;45412;54.472;18.464;2023-03-03T13:26:02;99813.77;;;8.22;44.10
59588;BME280;45412;54.472;18.464;2023-03-03T13:32:14;99812.42;;;8.04;44.01
59588;BME280;45412;54.472;18.464;2023-03-03T13:35:26;99812.24;;;7.88;44.13
59588;BME280;45412;54.472;18.464;2023-03-03T13:38:28;99814.27;;;7.72;44.80
59588;BME280;45412;54.472;18.464;2023-03-03T13:41:39;99809.17;;;7.54;45.92
59588;BME280;45412;54.472;18.464;2023-03-03T13:44:56;99803.20;;;7.38;46.75
59588;BME280;45412;54.472;18.464;2023-03-03T13:48:29;99803.68;;;7.28;47.90
59588;BME280;45412;54.472;18.464;2023-03-03T13:51:49;99798.72;;;7.18;48.93
59588;BME280;45412;54.472;18.464;2023-03-03T13:55:16;99798.25;;;7.20;49.18
59588;BME280;45412;54.472;18.464;2023-03-03T13:58:57;99799.25;;;7.23;48.60
59588;BME280;45412;54.472;18.464;2023-03-03T14:02:07;99800.67;;;7.21;48.33
59588;BME280;45412;54.472;18.464;2023-03-03T14:05:57;99791.38;;;7.15;48.68
59588;BME280;45412;54.472;18.464;2023-03-03T14:11:59;99794.18;;;6.83;48.87
59588;BME280;45412;54.472;18.464;2023-03-03T14:18:28;99788.95;;;6.52;49.47
59588;BME280;45412;54.472;18.464;2023-03-03T14:21:34;99785.23;;;6.39;49.93
59588;BME280;45412;54.472;18.464;2023-03-03T14:24:25;99777.92;;;6.29;49.98
59588;BME280;45412;54.472;18.464;2023-03-03T14:27:26;99785.48;;;6.21;50.76
59588;BME280;45412;54.472;18.464;2023-03-03T14:30:56;99786.23;;;6.12;50.76
59588;BME280;45412;54.472;18.464;2023-03-03T14:40:30;99764.51;;;5.93;51.46
59588;BME280;45412;54.472;18.464;2023-03-03T14:43:25;99758.25;;;5.89;52.80
59588;BME280;45412;54.472;18.464;2023-03-03T14:49:35;99744.56;;;5.77;56.57
59588;BME280;45412;54.472;18.464;2023-03-03T14:52:32;99745.66;;;5.65;57.25
59588;BME280;45412;54.472;18.464;2023-03-03T14:55:33;99746.61;;;5.58;57.47
59588;BME280;45412;54.472;18.464;2023-03-03T14:58:37;99742.87;;;5.50;57.73
59588;BME280;45412;54.472;18.464;2023-03-03T15:01:34;99738.51;;;5.44;58.30
59588;BME280;45412;54.472;18.464;2023-03-03T15:04:26;99736.77;;;5.40;58.47
59588;BME280;45412;54.472;18.464;2023-03-03T15:07:32;99729.28;;;5.37;58.88
59588;BME280;45412;54.472;18.464;2023-03-03T15:10:32;99723.17;;;5.27;58.81
59588;BME280;45412;54.472;18.464;2023-03-03T15:13:41;99722.94;;;5.19;59.52
59588;BME280;45412;54.472;18.464;2023-03-03T15:16:32;99713.70;;;5.03;59.54
59588;BME280;45412;54.472;18.464;2023-03-03T15:23:39;99714.05;;;4.80;58.81
59588;BME280;45412;54.472;18.464;2023-03-03T15:27:18;99699.91;;;4.63;58.72
59588;BME280;45412;54.472;18.464;2023-03-03T15:30:29;99696.87;;;4.55;59.30
59588;BME280;45412;54.472;18.464;2023-03-03T15:40:02;99688.93;;;4.37;59.99
59588;BME280;45412;54.472;18.464;2023-03-03T15:47:23;99694.13;;;4.20;61.08
59588;BME280;45412;54.472;18.464;2023-03-03T15:53:41;99680.39;;;4.05;62.36
59588;BME280;45412;54.472;18.464;2023-03-03T15:56:50;99677.66;;;3.94;62.82
59588;BME280;45412;54.472;18.464;2023-03-03T16:07:17;99651.16;;;3.60;64.18
59588;BME280;45412;54.472;18.464;2023-03-03T16:10:31;99650.72;;;3.49;64.54
59588;BME280;45412;54.472;18.464;2023-03-03T16:17:21;99641.45;;;3.32;65.92
59588;BME280;45412;54.472;18.464;2023-03-03T16:20:29;99641.99;;;3.22;67.07
59588;BME280;45412;54.472;18.464;2023-03-03T16:24:01;99638.91;;;3.14;67.34
59588;BME280;45412;54.472;18.464;2023-03-03T16:27:42;99633.49;;;3.04;67.76
59588;BME280;45412;54.472;18.464;2023-03-03T16:30:51;99637.30;;;2.98;68.07
59588;BME280;45412;54.472;18.464;2023-03-03T16:37:31;99624.14;;;2.85;69.98
59588;BME280;45412;54.472;18.464;2023-03-03T16:40:42;99621.66;;;2.79;70.59
59588;BME280;45412;54.472;18.464;2023-03-03T16:43:44;99599.50;;;2.67;71.29
59588;BME280;45412;54.472;18.464;2023-03-03T16:46:46;99612.39;;;2.68;72.11
59588;BME280;45412;54.472;18.464;2023-03-03T16:49:46;99609.33;;;2.64;72.87
59588;BME280;45412;54.472;18.464;2023-03-03T16:52:46;99613.73;;;2.56;73.92
59588;BME280;45412;54.472;18.464;2023-03-03T16:56:31;99608.55;;;2.51;73.95
59588;BME280;45412;54.472;18.464;2023-03-03T17:03:27;99610.45;;;2.42;75.12
59588;BME280;45412;54.472;18.464;2023-03-03T17:06:53;99598.79;;;2.36;76.01
59588;BME280;45412;54.472;18.464;2023-03-03T17:19:52;99597.53;;;2.16;78.57
59588;BME280;45412;54.472;18.464;2023-03-03T17:23:36;99593.77;;;2.11;80.00
59588;BME280;45412;54.472;18.464;2023-03-03T17:26:53;99586.40;;;2.08;80.22
59588;BME280;45412;54.472;18.464;2023-03-03T17:34:01;99586.27;;;2.00;81.98
59588;BME280;45412;54.472;18.464;2023-03-03T17:40:00;99578.01;;;1.94;83.02
59588;BME280;45412;54.472;18.464;2023-03-03T17:46:07;99576.17;;;1.92;84.38
59588;BME280;45412;54.472;18.464;2023-03-03T17:49:19;99581.85;;;1.90;84.74
59588;BME280;45412;54.472;18.464;2023-03-03T17:56:21;99571.34;;;1.87;85.49
59588;BME280;45412;54.472;18.464;2023-03-03T18:09:24;99564.33;;;1.80;86.83
59588;BME280;45412;54.472;18.464;2023-03-03T18:16:19;99547.47;;;1.75;87.01
59588;BME280;45412;54.472;18.464;2023-03-03T18:19:58;99543.63;;;1.71;87.10
59588;BME280;45412;54.472;18.464;2023-03-03T18:22:51;99533.03;;;1.69;86.92
59588;BME280;45412;54.472;18.464;2023-03-03T18:26:35;99531.26;;;1.66;87.12
59588;BME280;45412;54.472;18.464;2023-03-03T18:29:25;99530.05;;;1.62;87.22
59588;BME280;45412;54.472;18.464;2023-03-03T18:32:20;99529.14;;;1.60;87.23
59588;BME280;45412;54.472;18.464;2023-03-03T18:38:33;99516.55;;;1.52;87.24
59588;BME280;45412;54.472;18.464;2023-03-03T18:41:34;99516.74;;;1.48;86.85
59588;BME280;45412;54.472;18.464;2023-03-03T18:44:38;99511.98;;;1.42;86.79
59588;BME280;45412;54.472;18.464;2023-03-03T18:48:09;99504.70;;;1.37;86.73
59588;BME280;45412;54.472;18.464;2023-03-03T18:50:58;99500.06;;;1.31;86.72
59588;BME280;45412;54.472;18.464;2023-03-03T18:54:23;99490.83;;;1.27;86.78
59588;BME280;45412;54.472;18.464;2023-03-03T18:57:18;99470.88;;;1.21;87.03
59588;BME280;45412;54.472;18.464;2023-03-03T19:00:21;99455.41;;;1.15;87.61
59588;BME280;45412;54.472;18.464;2023-03-03T19:10:00;99481.72;;;0.98;88.80
59588;BME280;45412;54.472;18.464;2023-03-03T19:12:53;99470.73;;;0.94;89.08
59588;BME280;45412;54.472;18.464;2023-03-03T19:15:51;99463.03;;;0.91;89.13
59588;BME280;45412;54.472;18.464;2023-03-03T19:21:35;99470.04;;;0.87;89.49
59588;BME280;45412;54.472;18.464;2023-03-03T19:31:32;99468.41;;;0.81;90.55
59588;BME280;45412;54.472;18.464;2023-03-03T19:48:14;99477.45;;;0.93;89.95
59588;BME280;45412;54.472;18.464;2023-03-03T19:54:34;99463.93;;;0.98;89.62
59588;BME280;45412;54.472;18.464;2023-03-03T20:01:06;99466.89;;;1.02;89.15
59588;BME280;45412;54.472;18.464;2023-03-03T20:10:53;99455.94;;;1.04;88.65